sensor_id;sensor_type;location;lat;lon;timestamp;temperature;humidity
51878;SHT31;37911;51.526;11.536;2022-10-26T00:02:34;8.68;88.10
51878;SHT31;37911;51.526;11.536;2022-10-26T00:05:38;8.76;88.08
51878;SHT31;37911;51.526;11.536;2022-10-26T00:08:42;8.70;87.86
51878;SHT31;37911;51.526;11.536;2022-10-26T00:11:46;8.68;88.00
51878;SHT31;37911;51.526;11.536;2022-10-26T00:14:49;8.70;87.89
51878;SHT31;37911;51.526;11.536;2022-10-26T00:17:56;8.63;87.65
51878;SHT31;37911;51.526;11.536;2022-10-26T00:21:02;8.54;87.60
51878;SHT31;37911;51.526;11.536;2022-10-26T00:24:06;8.53;87.51
51878;SHT31;37911;51.526;11.536;2022-10-26T00:27:10;8.47;87.55
51878;SHT31;37911;51.526;11.536;2022-10-26T00:30:14;8.43;87.59
51878;SHT31;37911;51.526;11.536;2022-10-26T00:33:20;8.39;87.50
51878;SHT31;37911;51.526;11.536;2022-10-26T00:36:25;8.30;87.58
51878;SHT31;37911;51.526;11.536;2022-10-26T00:39:28;8.23;88.07
51878;SHT31;37911;51.526;11.536;2022-10-26T00:42:32;8.21;88.63
51878;SHT31;37911;51.526;11.536;2022-10-26T00:45:36;8.17;88.88
51878;SHT31;37911;51.526;11.536;2022-10-26T00:48:45;8.12;88.44
51878;SHT31;37911;51.526;11.536;2022-10-26T00:51:51;8.10;88.27
51878;SHT31;37911;51.526;11.536;2022-10-26T00:54:55;8.22;88.59
51878;SHT31;37911;51.526;11.536;2022-10-26T00:58:00;8.29;88.29
51878;SHT31;37911;51.526;11.536;2022-10-26T01:01:04;8.30;87.90
51878;SHT31;37911;51.526;11.536;2022-10-26T01:04:11;8.26;88.15
51878;SHT31;37911;51.526;11.536;2022-10-26T01:07:16;8.21;88.14
51878;SHT31;37911;51.526;11.536;2022-10-26T01:10:19;8.23;87.72
51878;SHT31;37911;51.526;11.536;2022-10-26T01:13:24;8.19;87.45
51878;SHT31;37911;51.526;11.536;2022-10-26T01:16:40;8.13;87.27
51878;SHT31;37911;51.526;11.536;2022-10-26T01:20:23;8.06;87.29
51878;SHT31;37911;51.526;11.536;2022-10-26T01:23:33;7.99;87.61
51878;SHT31;37911;51.526;11.536;2022-10-26T01:26:52;8.02;87.32
51878;SHT31;37911;51.526;11.536;2022-10-26T01:30:20;7.98;87.61
51878;SHT31;37911;51.526;11.536;2022-10-26T01:33:31;7.98;87.29
51878;SHT31;37911;51.526;11.536;2022-10-26T01:36:41;7.98;87.13
51878;SHT31;37911;51.526;11.536;2022-10-26T01:39:49;7.96;87.19
51878;SHT31;37911;51.526;11.536;2022-10-26T01:42:56;7.95;87.24
51878;SHT31;37911;51.526;11.536;2022-10-26T01:46:05;7.92;87.36
51878;SHT31;37911;51.526;11.536;2022-10-26T01:49:12;7.86;87.46
51878;SHT31;37911;51.526;11.536;2022-10-26T01:52:17;7.83;87.76
51878;SHT31;37911;51.526;11.536;2022-10-26T01:55:45;7.82;87.78
51878;SHT31;37911;51.526;11.536;2022-10-26T01:59:06;7.78;87.76
51878;SHT31;37911;51.526;11.536;2022-10-26T02:06:04;7.79;88.27
51878;SHT31;37911;51.526;11.536;2022-10-26T02:09:19;7.86;87.94
51878;SHT31;37911;51.526;11.536;2022-10-26T02:12:32;7.72;87.78
51878;SHT31;37911;51.526;11.536;2022-10-26T02:15:46;7.77;88.21
51878;SHT31;37911;51.526;11.536;2022-10-26T02:19:00;7.77;88.43
51878;SHT31;37911;51.526;11.536;2022-10-26T02:22:13;7.82;88.66
51878;SHT31;37911;51.526;11.536;2022-10-26T02:25:22;7.89;88.77
51878;SHT31;37911;51.526;11.536;2022-10-26T02:28:28;7.88;88.81
51878;SHT31;37911;51.526;11.536;2022-10-26T02:31:34;7.89;88.95
51878;SHT31;37911;51.526;11.536;2022-10-26T02:34:43;7.89;89.08
51878;SHT31;37911;51.526;11.536;2022-10-26T02:37:51;7.93;89.22
51878;SHT31;37911;51.526;11.536;2022-10-26T02:40:57;7.99;89.43
51878;SHT31;37911;51.526;11.536;2022-10-26T02:44:11;8.02;89.28
51878;SHT31;37911;51.526;11.536;2022-10-26T02:47:17;7.99;89.07
51878;SHT31;37911;51.526;11.536;2022-10-26T02:50:28;7.89;88.92
51878;SHT31;37911;51.526;11.536;2022-10-26T02:53:39;7.91;88.92
51878;SHT31;37911;51.526;11.536;2022-10-26T02:56:49;7.91;88.70
51878;SHT31;37911;51.526;11.536;2022-10-26T02:59:54;7.86;88.86
51878;SHT31;37911;51.526;11.536;2022-10-26T03:02:59;7.95;88.92
51878;SHT31;37911;51.526;11.536;2022-10-26T03:06:06;7.92;88.75
51878;SHT31;37911;51.526;11.536;2022-10-26T03:09:09;7.91;88.71
51878;SHT31;37911;51.526;11.536;2022-10-26T03:12:13;7.93;88.73
51878;SHT31;37911;51.526;11.536;2022-10-26T03:15:19;7.92;88.58
51878;SHT31;37911;51.526;11.536;2022-10-26T03:18:22;7.82;88.62
51878;SHT31;37911;51.526;11.536;2022-10-26T03:21:29;7.78;88.64
51878;SHT31;37911;51.526;11.536;2022-10-26T03:24:33;7.74;88.47
51878;SHT31;37911;51.526;11.536;2022-10-26T03:27:36;7.72;88.58
51878;SHT31;37911;51.526;11.536;2022-10-26T03:30:40;7.64;88.35
51878;SHT31;37911;51.526;11.536;2022-10-26T03:33:44;7.61;88.33
51878;SHT31;37911;51.526;11.536;2022-10-26T03:36:50;7.62;88.63
51878;SHT31;37911;51.526;11.536;2022-10-26T03:39:54;7.59;88.65
51878;SHT31;37911;51.526;11.536;2022-10-26T03:42:58;7.58;88.72
51878;SHT31;37911;51.526;11.536;2022-10-26T03:46:01;7.57;88.62
51878;SHT31;37911;51.526;11.536;2022-10-26T03:49:05;7.58;88.80
51878;SHT31;37911;51.526;11.536;2022-10-26T03:52:12;7.57;88.99
51878;SHT31;37911;51.526;11.536;2022-10-26T03:55:15;7.58;88.87
51878;SHT31;37911;51.526;11.536;2022-10-26T03:58:21;7.51;88.95
51878;SHT31;37911;51.526;11.536;2022-10-26T04:01:24;7.52;88.88
51878;SHT31;37911;51.526;11.536;2022-10-26T04:04:28;7.48;88.89
51878;SHT31;37911;51.526;11.536;2022-10-26T04:07:34;7.44;88.93
51878;SHT31;37911;51.526;11.536;2022-10-26T04:10:40;7.46;89.23
51878;SHT31;37911;51.526;11.536;2022-10-26T04:13:43;7.48;89.33
51878;SHT31;37911;51.526;11.536;2022-10-26T04:16:47;7.47;89.24
51878;SHT31;37911;51.526;11.536;2022-10-26T04:19:51;7.51;88.87
51878;SHT31;37911;51.526;11.536;2022-10-26T04:23:02;7.47;88.74
51878;SHT31;37911;51.526;11.536;2022-10-26T04:26:06;7.47;88.84
51878;SHT31;37911;51.526;11.536;2022-10-26T04:29:10;7.52;88.50
51878;SHT31;37911;51.526;11.536;2022-10-26T04:32:14;7.55;88.25
51878;SHT31;37911;51.526;11.536;2022-10-26T04:35:17;7.50;88.16
51878;SHT31;37911;51.526;11.536;2022-10-26T04:38:24;7.40;88.40
51878;SHT31;37911;51.526;11.536;2022-10-26T04:41:27;7.35;88.78
51878;SHT31;37911;51.526;11.536;2022-10-26T04:44:31;7.35;88.87
51878;SHT31;37911;51.526;11.536;2022-10-26T04:47:35;7.40;88.89
51878;SHT31;37911;51.526;11.536;2022-10-26T04:50:39;7.41;88.83
51878;SHT31;37911;51.526;11.536;2022-10-26T04:53:46;7.46;88.64
51878;SHT31;37911;51.526;11.536;2022-10-26T04:56:50;7.47;88.52
51878;SHT31;37911;51.526;11.536;2022-10-26T04:59:53;7.44;88.57
51878;SHT31;37911;51.526;11.536;2022-10-26T05:03:01;7.41;88.35
51878;SHT31;37911;51.526;11.536;2022-10-26T05:06:05;7.41;88.33
51878;SHT31;37911;51.526;11.536;2022-10-26T05:09:12;7.37;88.44
51878;SHT31;37911;51.526;11.536;2022-10-26T05:12:16;7.37;88.36
51878;SHT31;37911;51.526;11.536;2022-10-26T05:15:22;7.46;88.14
51878;SHT31;37911;51.526;11.536;2022-10-26T05:18:26;7.46;88.25
51878;SHT31;37911;51.526;11.536;2022-10-26T05:21:29;7.35;88.65
51878;SHT31;37911;51.526;11.536;2022-10-26T05:24:36;7.38;88.73
51878;SHT31;37911;51.526;11.536;2022-10-26T05:27:40;7.41;88.74
51878;SHT31;37911;51.526;11.536;2022-10-26T05:30:45;7.40;88.56
51878;SHT31;37911;51.526;11.536;2022-10-26T05:33:49;7.32;88.65
51878;SHT31;37911;51.526;11.536;2022-10-26T05:36:53;7.32;88.74
51878;SHT31;37911;51.526;11.536;2022-10-26T05:39:59;7.34;88.95
51878;SHT31;37911;51.526;11.536;2022-10-26T05:43:03;7.32;89.35
51878;SHT31;37911;51.526;11.536;2022-10-26T05:46:09;7.27;89.76
51878;SHT31;37911;51.526;11.536;2022-10-26T05:49:12;7.32;90.14
51878;SHT31;37911;51.526;11.536;2022-10-26T05:52:16;7.31;90.43
51878;SHT31;37911;51.526;11.536;2022-10-26T05:55:23;7.31;90.82
51878;SHT31;37911;51.526;11.536;2022-10-26T05:58:28;7.28;91.08
51878;SHT31;37911;51.526;11.536;2022-10-26T06:01:43;7.28;91.23
51878;SHT31;37911;51.526;11.536;2022-10-26T06:04:49;7.27;91.29
51878;SHT31;37911;51.526;11.536;2022-10-26T06:07:53;7.30;91.27
51878;SHT31;37911;51.526;11.536;2022-10-26T06:11:02;7.30;91.14
51878;SHT31;37911;51.526;11.536;2022-10-26T06:14:08;7.35;90.80
51878;SHT31;37911;51.526;11.536;2022-10-26T06:17:28;7.41;90.28
51878;SHT31;37911;51.526;11.536;2022-10-26T06:20:43;7.47;89.65
51878;SHT31;37911;51.526;11.536;2022-10-26T06:23:54;7.47;89.16
51878;SHT31;37911;51.526;11.536;2022-10-26T06:27:13;7.41;89.18
51878;SHT31;37911;51.526;11.536;2022-10-26T06:30:21;7.47;89.17
51878;SHT31;37911;51.526;11.536;2022-10-26T06:33:28;7.50;89.26
51878;SHT31;37911;51.526;11.536;2022-10-26T06:36:33;7.55;89.26
51878;SHT31;37911;51.526;11.536;2022-10-26T06:39:43;7.64;89.31
51878;SHT31;37911;51.526;11.536;2022-10-26T06:42:51;7.69;89.28
51878;SHT31;37911;51.526;11.536;2022-10-26T06:46:07;7.71;89.14
51878;SHT31;37911;51.526;11.536;2022-10-26T06:49:18;7.74;89.36
51878;SHT31;37911;51.526;11.536;2022-10-26T06:52:31;7.82;89.46
51878;SHT31;37911;51.526;11.536;2022-10-26T06:55:39;7.88;89.63
51878;SHT31;37911;51.526;11.536;2022-10-26T06:58:47;8.01;89.60
51878;SHT31;37911;51.526;11.536;2022-10-26T07:01:52;8.13;89.49
51878;SHT31;37911;51.526;11.536;2022-10-26T07:04:55;8.22;89.50
51878;SHT31;37911;51.526;11.536;2022-10-26T07:07:59;8.28;89.52
51878;SHT31;37911;51.526;11.536;2022-10-26T07:11:03;8.42;89.45
51878;SHT31;37911;51.526;11.536;2022-10-26T07:14:11;8.54;89.51
51878;SHT31;37911;51.526;11.536;2022-10-26T07:17:15;8.61;89.52
51878;SHT31;37911;51.526;11.536;2022-10-26T07:20:20;8.77;89.46
51878;SHT31;37911;51.526;11.536;2022-10-26T07:23:24;8.88;89.49
51878;SHT31;37911;51.526;11.536;2022-10-26T07:26:28;9.00;89.47
51878;SHT31;37911;51.526;11.536;2022-10-26T07:29:34;9.12;89.34
51878;SHT31;37911;51.526;11.536;2022-10-26T07:32:39;9.19;89.32
51878;SHT31;37911;51.526;11.536;2022-10-26T07:35:43;9.25;89.24
51878;SHT31;37911;51.526;11.536;2022-10-26T07:38:46;9.32;89.17
51878;SHT31;37911;51.526;11.536;2022-10-26T07:41:53;9.39;89.08
51878;SHT31;37911;51.526;11.536;2022-10-26T07:44:59;9.53;88.91
51878;SHT31;37911;51.526;11.536;2022-10-26T07:48:03;9.75;88.83
51878;SHT31;37911;51.526;11.536;2022-10-26T07:51:07;9.96;88.41
51878;SHT31;37911;51.526;11.536;2022-10-26T07:54:11;10.20;88.08
51878;SHT31;37911;51.526;11.536;2022-10-26T07:57:15;10.41;87.53
51878;SHT31;37911;51.526;11.536;2022-10-26T08:00:22;10.77;86.44
51878;SHT31;37911;51.526;11.536;2022-10-26T08:03:27;11.14;85.17
51878;SHT31;37911;51.526;11.536;2022-10-26T08:06:33;11.46;83.93
51878;SHT31;37911;51.526;11.536;2022-10-26T08:09:37;11.30;84.01
51878;SHT31;37911;51.526;11.536;2022-10-26T08:12:41;11.65;83.91
51878;SHT31;37911;51.526;11.536;2022-10-26T08:15:47;12.37;81.37
51878;SHT31;37911;51.526;11.536;2022-10-26T08:18:52;12.88;79.73
51878;SHT31;37911;51.526;11.536;2022-10-26T08:21:56;12.86;79.17
51878;SHT31;37911;51.526;11.536;2022-10-26T08:25:00;12.65;80.00
51878;SHT31;37911;51.526;11.536;2022-10-26T08:28:04;12.49;80.41
51878;SHT31;37911;51.526;11.536;2022-10-26T08:31:10;12.49;80.58
51878;SHT31;37911;51.526;11.536;2022-10-26T08:34:14;12.44;80.21
51878;SHT31;37911;51.526;11.536;2022-10-26T08:37:18;12.21;81.28
51878;SHT31;37911;51.526;11.536;2022-10-26T08:40:26;12.20;81.32
51878;SHT31;37911;51.526;11.536;2022-10-26T08:43:34;12.11;81.93
51878;SHT31;37911;51.526;11.536;2022-10-26T08:46:46;11.97;82.48
51878;SHT31;37911;51.526;11.536;2022-10-26T08:49:58;12.03;82.70
51878;SHT31;37911;51.526;11.536;2022-10-26T08:53:07;12.00;83.13
51878;SHT31;37911;51.526;11.536;2022-10-26T08:56:16;12.00;83.18
51878;SHT31;37911;51.526;11.536;2022-10-26T08:59:29;12.35;83.05
51878;SHT31;37911;51.526;11.536;2022-10-26T09:02:37;13.09;80.69
51878;SHT31;37911;51.526;11.536;2022-10-26T09:05:48;13.51;79.26
51878;SHT31;37911;51.526;11.536;2022-10-26T09:09:01;13.87;78.35
51878;SHT31;37911;51.526;11.536;2022-10-26T09:12:11;14.18;77.27
51878;SHT31;37911;51.526;11.536;2022-10-26T09:15:22;14.61;76.29
51878;SHT31;37911;51.526;11.536;2022-10-26T09:18:39;14.93;75.95
51878;SHT31;37911;51.526;11.536;2022-10-26T09:21:51;14.82;75.41
51878;SHT31;37911;51.526;11.536;2022-10-26T09:25:02;14.68;75.92
51878;SHT31;37911;51.526;11.536;2022-10-26T09:28:14;14.56;76.74
51878;SHT31;37911;51.526;11.536;2022-10-26T09:31:19;14.49;76.95
51878;SHT31;37911;51.526;11.536;2022-10-26T09:34:30;14.68;77.10
51878;SHT31;37911;51.526;11.536;2022-10-26T09:37:38;15.20;76.04
51878;SHT31;37911;51.526;11.536;2022-10-26T09:40:49;15.48;75.48
51878;SHT31;37911;51.526;11.536;2022-10-26T09:44:02;15.65;74.87
51878;SHT31;37911;51.526;11.536;2022-10-26T09:47:13;15.68;74.46
51878;SHT31;37911;51.526;11.536;2022-10-26T09:50:25;15.65;74.37
51878;SHT31;37911;51.526;11.536;2022-10-26T09:53:30;15.57;74.06
51878;SHT31;37911;51.526;11.536;2022-10-26T09:56:36;15.57;74.95
51878;SHT31;37911;51.526;11.536;2022-10-26T09:59:40;15.60;75.21
51878;SHT31;37911;51.526;11.536;2022-10-26T10:02:46;15.54;75.52
51878;SHT31;37911;51.526;11.536;2022-10-26T10:06:13;15.48;75.51
51878;SHT31;37911;51.526;11.536;2022-10-26T10:09:19;15.48;75.97
51878;SHT31;37911;51.526;11.536;2022-10-26T10:12:24;15.46;75.85
51878;SHT31;37911;51.526;11.536;2022-10-26T10:15:28;15.41;75.97
51878;SHT31;37911;51.526;11.536;2022-10-26T10:18:32;15.40;76.06
51878;SHT31;37911;51.526;11.536;2022-10-26T10:21:44;15.40;76.05
51878;SHT31;37911;51.526;11.536;2022-10-26T10:24:56;15.30;76.11
51878;SHT31;37911;51.526;11.536;2022-10-26T10:28:00;15.26;76.24
51878;SHT31;37911;51.526;11.536;2022-10-26T10:31:15;15.19;76.70
51878;SHT31;37911;51.526;11.536;2022-10-26T10:34:21;15.19;76.67
51878;SHT31;37911;51.526;11.536;2022-10-26T10:37:29;15.11;76.71
51878;SHT31;37911;51.526;11.536;2022-10-26T10:40:33;14.93;77.18
51878;SHT31;37911;51.526;11.536;2022-10-26T10:43:42;14.80;77.54
51878;SHT31;37911;51.526;11.536;2022-10-26T10:46:46;14.73;78.19
51878;SHT31;37911;51.526;11.536;2022-10-26T10:49:57;14.68;78.61
51878;SHT31;37911;51.526;11.536;2022-10-26T10:53:20;14.65;78.69
51878;SHT31;37911;51.526;11.536;2022-10-26T10:56:33;14.68;78.89
51878;SHT31;37911;51.526;11.536;2022-10-26T10:59:45;14.62;79.14
51878;SHT31;37911;51.526;11.536;2022-10-26T11:03:14;14.73;78.81
51878;SHT31;37911;51.526;11.536;2022-10-26T11:06:21;14.85;77.98
51878;SHT31;37911;51.526;11.536;2022-10-26T11:09:31;14.93;77.31
51878;SHT31;37911;51.526;11.536;2022-10-26T11:12:43;14.96;76.68
51878;SHT31;37911;51.526;11.536;2022-10-26T11:15:49;14.97;77.02
51878;SHT31;37911;51.526;11.536;2022-10-26T11:18:57;14.95;76.88
51878;SHT31;37911;51.526;11.536;2022-10-26T11:22:04;14.97;77.37
51878;SHT31;37911;51.526;11.536;2022-10-26T11:25:19;15.07;77.01
51878;SHT31;37911;51.526;11.536;2022-10-26T11:28:34;15.17;76.61
51878;SHT31;37911;51.526;11.536;2022-10-26T11:31:43;15.26;76.38
51878;SHT31;37911;51.526;11.536;2022-10-26T11:34:54;15.39;76.11
51878;SHT31;37911;51.526;11.536;2022-10-26T11:38:03;15.47;75.51
51878;SHT31;37911;51.526;11.536;2022-10-26T11:41:14;15.57;74.80
51878;SHT31;37911;51.526;11.536;2022-10-26T11:44:25;15.65;74.75
51878;SHT31;37911;51.526;11.536;2022-10-26T11:47:39;15.71;74.32
51878;SHT31;37911;51.526;11.536;2022-10-26T11:50:49;15.81;74.45
51878;SHT31;37911;51.526;11.536;2022-10-26T11:53:54;15.98;74.19
51878;SHT31;37911;51.526;11.536;2022-10-26T11:57:03;16.15;73.16
51878;SHT31;37911;51.526;11.536;2022-10-26T12:00:14;16.22;72.85
51878;SHT31;37911;51.526;11.536;2022-10-26T12:03:21;16.28;72.71
51878;SHT31;37911;51.526;11.536;2022-10-26T12:06:30;16.30;72.09
51878;SHT31;37911;51.526;11.536;2022-10-26T12:09:37;16.42;72.00
51878;SHT31;37911;51.526;11.536;2022-10-26T12:12:48;16.42;72.15
51878;SHT31;37911;51.526;11.536;2022-10-26T12:15:56;16.33;72.56
51878;SHT31;37911;51.526;11.536;2022-10-26T12:19:07;16.35;72.51
51878;SHT31;37911;51.526;11.536;2022-10-26T12:22:16;16.32;72.70
51878;SHT31;37911;51.526;11.536;2022-10-26T12:25:21;16.26;73.03
51878;SHT31;37911;51.526;11.536;2022-10-26T12:28:40;16.22;73.28
51878;SHT31;37911;51.526;11.536;2022-10-26T12:31:44;16.15;72.79
51878;SHT31;37911;51.526;11.536;2022-10-26T12:35:02;16.05;73.03
51878;SHT31;37911;51.526;11.536;2022-10-26T12:41:56;15.84;73.99
51878;SHT31;37911;51.526;11.536;2022-10-26T12:45:13;15.75;73.70
51878;SHT31;37911;51.526;11.536;2022-10-26T12:48:20;15.72;74.27
51878;SHT31;37911;51.526;11.536;2022-10-26T12:51:42;15.68;73.78
51878;SHT31;37911;51.526;11.536;2022-10-26T12:55:08;15.61;73.98
51878;SHT31;37911;51.526;11.536;2022-10-26T12:58:43;15.57;74.77
51878;SHT31;37911;51.526;11.536;2022-10-26T13:02:17;15.51;75.38
51878;SHT31;37911;51.526;11.536;2022-10-26T13:09:27;15.48;75.41
51878;SHT31;37911;51.526;11.536;2022-10-26T13:12:44;15.39;75.73
51878;SHT31;37911;51.526;11.536;2022-10-26T13:15:52;15.40;76.02
51878;SHT31;37911;51.526;11.536;2022-10-26T13:18:59;15.34;76.29
51878;SHT31;37911;51.526;11.536;2022-10-26T13:22:03;15.31;76.41
51878;SHT31;37911;51.526;11.536;2022-10-26T13:25:19;15.27;76.77
51878;SHT31;37911;51.526;11.536;2022-10-26T13:28:31;15.24;76.80
51878;SHT31;37911;51.526;11.536;2022-10-26T13:32:00;15.20;76.78
51878;SHT31;37911;51.526;11.536;2022-10-26T13:35:11;15.20;76.98
51878;SHT31;37911;51.526;11.536;2022-10-26T13:38:19;15.26;76.78
51878;SHT31;37911;51.526;11.536;2022-10-26T13:41:28;15.27;76.92
51878;SHT31;37911;51.526;11.536;2022-10-26T13:44:38;15.31;76.88
51878;SHT31;37911;51.526;11.536;2022-10-26T13:47:45;15.40;76.66
51878;SHT31;37911;51.526;11.536;2022-10-26T13:50:55;15.41;76.01
51878;SHT31;37911;51.526;11.536;2022-10-26T13:54:03;15.46;75.89
51878;SHT31;37911;51.526;11.536;2022-10-26T13:57:15;15.47;75.97
51878;SHT31;37911;51.526;11.536;2022-10-26T14:00:21;15.53;75.94
51878;SHT31;37911;51.526;11.536;2022-10-26T14:03:25;15.61;76.61
51878;SHT31;37911;51.526;11.536;2022-10-26T14:06:35;15.70;76.30
51878;SHT31;37911;51.526;11.536;2022-10-26T14:09:39;15.77;76.14
51878;SHT31;37911;51.526;11.536;2022-10-26T14:12:43;15.78;76.10
51878;SHT31;37911;51.526;11.536;2022-10-26T14:15:47;15.80;76.15
51878;SHT31;37911;51.526;11.536;2022-10-26T14:18:51;15.78;76.47
51878;SHT31;37911;51.526;11.536;2022-10-26T14:21:57;15.77;76.65
51878;SHT31;37911;51.526;11.536;2022-10-26T14:25:02;15.72;76.71
51878;SHT31;37911;51.526;11.536;2022-10-26T14:28:19;15.75;76.45
51878;SHT31;37911;51.526;11.536;2022-10-26T14:31:26;15.70;76.72
51878;SHT31;37911;51.526;11.536;2022-10-26T14:34:30;15.70;77.05
51878;SHT31;37911;51.526;11.536;2022-10-26T14:37:41;15.65;76.97
51878;SHT31;37911;51.526;11.536;2022-10-26T14:40:47;15.64;77.22
51878;SHT31;37911;51.526;11.536;2022-10-26T14:43:53;15.64;77.49
51878;SHT31;37911;51.526;11.536;2022-10-26T14:46:57;15.55;78.00
51878;SHT31;37911;51.526;11.536;2022-10-26T14:50:02;15.55;78.25
51878;SHT31;37911;51.526;11.536;2022-10-26T14:53:14;15.50;78.73
51878;SHT31;37911;51.526;11.536;2022-10-26T14:56:24;15.47;79.12
51878;SHT31;37911;51.526;11.536;2022-10-26T14:59:30;15.47;79.25
51878;SHT31;37911;51.526;11.536;2022-10-26T15:02:35;15.43;79.77
51878;SHT31;37911;51.526;11.536;2022-10-26T15:05:39;15.47;79.59
51878;SHT31;37911;51.526;11.536;2022-10-26T15:08:45;15.46;79.68
51878;SHT31;37911;51.526;11.536;2022-10-26T15:11:49;15.44;79.69
51878;SHT31;37911;51.526;11.536;2022-10-26T15:14:54;15.44;79.23
51878;SHT31;37911;51.526;11.536;2022-10-26T15:18:00;15.43;79.35
51878;SHT31;37911;51.526;11.536;2022-10-26T15:21:22;15.41;79.55
51878;SHT31;37911;51.526;11.536;2022-10-26T15:24:34;15.40;79.41
51878;SHT31;37911;51.526;11.536;2022-10-26T15:27:39;15.36;79.69
51878;SHT31;37911;51.526;11.536;2022-10-26T15:30:58;15.33;79.93
51878;SHT31;37911;51.526;11.536;2022-10-26T15:34:12;15.24;80.37
51878;SHT31;37911;51.526;11.536;2022-10-26T15:37:16;15.19;80.89
51878;SHT31;37911;51.526;11.536;2022-10-26T15:40:24;15.13;81.13
51878;SHT31;37911;51.526;11.536;2022-10-26T15:43:28;15.06;81.61
51878;SHT31;37911;51.526;11.536;2022-10-26T15:46:34;15.00;81.90
51878;SHT31;37911;51.526;11.536;2022-10-26T15:49:38;14.93;82.30
51878;SHT31;37911;51.526;11.536;2022-10-26T15:52:42;14.92;82.41
51878;SHT31;37911;51.526;11.536;2022-10-26T15:55:50;14.87;82.55
51878;SHT31;37911;51.526;11.536;2022-10-26T15:58:56;14.79;82.72
51878;SHT31;37911;51.526;11.536;2022-10-26T16:01:59;14.79;82.85
51878;SHT31;37911;51.526;11.536;2022-10-26T16:05:04;14.79;83.05
51878;SHT31;37911;51.526;11.536;2022-10-26T16:08:10;14.75;83.12
51878;SHT31;37911;51.526;11.536;2022-10-26T16:11:17;14.71;83.38
51878;SHT31;37911;51.526;11.536;2022-10-26T16:14:21;14.64;83.73
51878;SHT31;37911;51.526;11.536;2022-10-26T16:17:25;14.61;83.83
51878;SHT31;37911;51.526;11.536;2022-10-26T16:20:28;14.56;83.98
51878;SHT31;37911;51.526;11.536;2022-10-26T16:23:32;14.51;84.16
51878;SHT31;37911;51.526;11.536;2022-10-26T16:26:39;14.45;84.41
51878;SHT31;37911;51.526;11.536;2022-10-26T16:29:42;14.44;84.56
51878;SHT31;37911;51.526;11.536;2022-10-26T16:32:46;14.44;84.43
51878;SHT31;37911;51.526;11.536;2022-10-26T16:35:54;14.45;84.26
51878;SHT31;37911;51.526;11.536;2022-10-26T16:38:58;14.41;84.13
51878;SHT31;37911;51.526;11.536;2022-10-26T16:42:04;14.44;83.92
51878;SHT31;37911;51.526;11.536;2022-10-26T16:45:09;14.36;83.99
51878;SHT31;37911;51.526;11.536;2022-10-26T16:48:13;14.32;84.04
51878;SHT31;37911;51.526;11.536;2022-10-26T16:51:18;14.56;84.66
51878;SHT31;37911;51.526;11.536;2022-10-26T16:54:22;15.46;84.48
51878;SHT31;37911;51.526;11.536;2022-10-26T16:57:28;16.04;79.72
51878;SHT31;37911;51.526;11.536;2022-10-26T17:00:34;17.20;74.43
51878;SHT31;37911;51.526;11.536;2022-10-26T17:03:37;17.61;72.85
51878;SHT31;37911;51.526;11.536;2022-10-26T17:06:41;18.22;69.83
51878;SHT31;37911;51.526;11.536;2022-10-26T17:09:45;18.91;68.80
51878;SHT31;37911;51.526;11.536;2022-10-26T17:12:51;18.87;68.25
51878;SHT31;37911;51.526;11.536;2022-10-26T17:15:59;19.12;66.03
51878;SHT31;37911;51.526;11.536;2022-10-26T17:19:03;18.50;67.76
51878;SHT31;37911;51.526;11.536;2022-10-26T17:22:07;18.43;69.20
51878;SHT31;37911;51.526;11.536;2022-10-26T17:25:11;18.17;68.74
51878;SHT31;37911;51.526;11.536;2022-10-26T17:28:17;18.39;69.98
51878;SHT31;37911;51.526;11.536;2022-10-26T17:31:22;18.28;68.45
51878;SHT31;37911;51.526;11.536;2022-10-26T17:34:26;17.89;69.14
51878;SHT31;37911;51.526;11.536;2022-10-26T17:37:29;17.42;70.44
51878;SHT31;37911;51.526;11.536;2022-10-26T17:40:33;16.99;72.31
51878;SHT31;37911;51.526;11.536;2022-10-26T17:43:41;16.57;73.64
51878;SHT31;37911;51.526;11.536;2022-10-26T17:46:45;16.13;75.23
51878;SHT31;37911;51.526;11.536;2022-10-26T17:49:48;15.82;76.46
51878;SHT31;37911;51.526;11.536;2022-10-26T17:52:53;15.47;78.00
51878;SHT31;37911;51.526;11.536;2022-10-26T17:56:01;15.27;78.66
51878;SHT31;37911;51.526;11.536;2022-10-26T17:59:10;15.06;79.54
51878;SHT31;37911;51.526;11.536;2022-10-26T18:02:14;14.96;80.08
51878;SHT31;37911;51.526;11.536;2022-10-26T18:05:18;14.77;80.86
51878;SHT31;37911;51.526;11.536;2022-10-26T18:08:22;14.68;81.35
51878;SHT31;37911;51.526;11.536;2022-10-26T18:11:25;14.55;81.88
51878;SHT31;37911;51.526;11.536;2022-10-26T18:14:32;14.48;82.17
51878;SHT31;37911;51.526;11.536;2022-10-26T18:17:35;14.42;82.56
51878;SHT31;37911;51.526;11.536;2022-10-26T18:20:41;14.38;82.81
51878;SHT31;37911;51.526;11.536;2022-10-26T18:23:46;14.28;83.06
51878;SHT31;37911;51.526;11.536;2022-10-26T18:26:49;14.21;83.25
51878;SHT31;37911;51.526;11.536;2022-10-26T18:29:56;14.12;83.21
51878;SHT31;37911;51.526;11.536;2022-10-26T18:33:00;14.12;83.63
51878;SHT31;37911;51.526;11.536;2022-10-26T18:36:07;14.07;83.78
51878;SHT31;37911;51.526;11.536;2022-10-26T18:39:11;13.98;84.28
51878;SHT31;37911;51.526;11.536;2022-10-26T18:42:14;14.07;84.52
51878;SHT31;37911;51.526;11.536;2022-10-26T18:45:21;14.11;84.51
51878;SHT31;37911;51.526;11.536;2022-10-26T18:48:24;14.12;84.53
51878;SHT31;37911;51.526;11.536;2022-10-26T18:51:30;14.10;84.34
51878;SHT31;37911;51.526;11.536;2022-10-26T18:54:34;14.01;84.39
51878;SHT31;37911;51.526;11.536;2022-10-26T18:57:38;13.95;84.35
51878;SHT31;37911;51.526;11.536;2022-10-26T19:00:44;13.84;84.26
51878;SHT31;37911;51.526;11.536;2022-10-26T19:03:52;13.82;85.04
51878;SHT31;37911;51.526;11.536;2022-10-26T19:06:56;13.74;85.05
51878;SHT31;37911;51.526;11.536;2022-10-26T19:10:01;13.70;85.19
51878;SHT31;37911;51.526;11.536;2022-10-26T19:13:04;13.69;85.79
51878;SHT31;37911;51.526;11.536;2022-10-26T19:16:12;13.70;86.25
51878;SHT31;37911;51.526;11.536;2022-10-26T19:19:17;13.71;86.18
51878;SHT31;37911;51.526;11.536;2022-10-26T19:22:21;13.69;86.45
51878;SHT31;37911;51.526;11.536;2022-10-26T19:25:25;13.75;86.51
51878;SHT31;37911;51.526;11.536;2022-10-26T19:28:30;13.70;86.57
51878;SHT31;37911;51.526;11.536;2022-10-26T19:31:36;13.67;86.83
51878;SHT31;37911;51.526;11.536;2022-10-26T19:34:40;13.67;86.87
51878;SHT31;37911;51.526;11.536;2022-10-26T19:37:44;13.63;86.95
51878;SHT31;37911;51.526;11.536;2022-10-26T19:40:55;13.61;87.16
51878;SHT31;37911;51.526;11.536;2022-10-26T19:43:59;13.61;87.13
51878;SHT31;37911;51.526;11.536;2022-10-26T19:47:06;13.57;87.14